CheckWX is a tool to help pilots better visualize weather data.  It is not intended as a substitute for an official pre-flight weather briefing.

04:54:37 UTC

KTMB TAF
Miami Executive Airport
Miami, Florida, USA
KTMB 270311Z 2703/2724 VRB03KT P6SM VCTS SCT035CB SCT250 FM270400 VRB03KT P6SM SCT250 FM271400 09010KT P6SM FEW035 SCT150

Jun-27@
03:00 UTC

Jun-27 @ 03:00 UTC

Jun-27@
04:00 UTC

Jun-27 @ 04:00 UTC

KTMB 270311Z 2703/2724 VRB03KT P6SM VCTS SCT035CB SCT250

Expired

Wind
  • Variable at 3 KTS
Conditions
Area Thunderstorm
Cloud Levels
  • Scattered at 3,500' AGL
  • Scattered at 25,000' AGL

Jun-27@
04:00 UTC

Jun-27 @ 04:00 UTC

Jun-27@
14:00 UTC

Jun-27 @ 14:00 UTC

FM270400 VRB03KT P6SM SCT250

From

From Standard forecast or significant change

Wind
  • Variable at 3 KTS
Cloud Levels
  • Scattered at 25,000' AGL

Jun-27@
14:00 UTC

Jun-27 @ 14:00 UTC

Jun-28@
00:00 UTC

Jun-28 @ 00:00 UTC

FM271400 09010KT P6SM FEW035 SCT150

From

From Standard forecast or significant change

Wind
  • 090° at 10 KTS
Cloud Levels
  • Few at 3,500' AGL
  • Scattered at 15,000' AGL